createdAt,value
2023-02-04T19:16:14.319Z,0.01
2023-02-04T19:18:54.699Z,-0.19
2023-02-04T19:21:25.708Z,0.20
2023-02-04T19:24:01.595Z,-0.08
2023-02-04T19:31:55.821Z,-0.05
2023-02-04T19:34:33.933Z,0.07
2023-02-04T19:39:38.357Z,0.14
2023-02-04T19:47:35.273Z,0.30
2023-02-04T19:52:38.827Z,0.17
2023-02-04T20:22:17.334Z,0.08
2023-02-04T20:50:38.582Z,0.16
2023-02-04T20:53:16.586Z,-0.01
2023-02-04T20:55:49.136Z,-0.04
2023-02-04T20:58:19.328Z,-0.08
2023-02-04T21:00:51.940Z,-0.13
2023-02-04T21:03:33.553Z,-0.17
2023-02-04T21:06:00.658Z,-0.20
2023-02-04T21:08:33.355Z,-0.20
2023-02-04T21:11:00.378Z,-0.37
2023-02-04T21:13:26.834Z,-0.49
2023-02-04T21:15:53.626Z,-0.39
2023-02-04T21:18:20.207Z,-0.30
2023-02-04T21:20:46.603Z,-0.52
2023-02-04T21:23:13.078Z,-0.40
2023-02-04T21:25:39.477Z,-0.49
2023-02-04T21:28:06.414Z,-0.62
2023-02-04T21:30:33.036Z,-0.55
2023-02-04T21:33:00.380Z,-0.52
2023-02-04T21:35:26.827Z,-0.23
2023-02-04T21:37:54.836Z,-0.15
2023-02-04T21:40:22.351Z,-0.11
2023-02-04T21:42:49.397Z,-0.17
2023-02-04T21:45:17.542Z,-0.40
2023-02-04T21:47:44.785Z,-0.41
2023-02-04T21:50:14.261Z,-0.42
2023-02-04T21:52:41.630Z,-0.32
2023-02-04T21:55:09.461Z,-0.22
2023-02-04T21:57:35.914Z,-0.45
2023-02-04T22:00:02.457Z,-0.33
2023-02-04T22:02:28.865Z,-0.37
2023-02-04T22:04:55.257Z,-0.13
2023-02-04T22:07:21.731Z,0.01
2023-02-04T22:09:49.983Z,-0.15
2023-02-04T22:12:17.717Z,-0.17
2023-02-04T22:14:44.272Z,-0.27
2023-02-04T22:17:10.734Z,-0.22
2023-02-04T22:19:37.495Z,-0.11
2023-02-04T22:22:03.901Z,-0.17
2023-02-04T22:24:30.301Z,0.12
2023-02-04T22:26:56.700Z,0.34
2023-02-04T22:29:28.524Z,0.11
2023-02-04T22:31:55.027Z,0.21
2023-02-04T22:34:22.200Z,0.09
2023-02-04T22:36:48.899Z,0.05
2023-02-04T22:39:15.354Z,-0.08
2023-02-04T22:41:41.749Z,-0.03
2023-02-04T22:44:08.152Z,0.26
2023-02-04T22:46:34.611Z,0.53
2023-02-04T22:49:01.221Z,0.28
2023-02-04T22:51:27.714Z,0.23
2023-02-04T22:53:54.145Z,0.02
2023-02-04T22:56:21.485Z,0.26
2023-02-04T22:58:47.848Z,0.25
2023-02-04T23:01:14.376Z,0.49
2023-02-04T23:03:40.894Z,0.38
2023-02-04T23:06:07.516Z,0.39
2023-02-04T23:08:33.970Z,0.24
2023-02-04T23:11:00.352Z,0.17
2023-02-04T23:13:26.814Z,0.33
2023-02-04T23:15:53.418Z,0.54
2023-02-04T23:18:19.990Z,0.44
2023-02-04T23:20:46.497Z,0.11
2023-02-04T23:23:17.425Z,0.12
2023-02-04T23:25:45.752Z,-0.14
2023-02-04T23:28:12.274Z,-0.05
2023-02-04T23:30:39.204Z,0.09
2023-02-04T23:33:05.650Z,-0.07
2023-02-04T23:35:32.946Z,-0.26
2023-02-04T23:37:59.649Z,-0.26
2023-02-04T23:40:26.042Z,-0.13
2023-02-04T23:42:52.450Z,-0.32
2023-02-04T23:45:18.833Z,-0.38
2023-02-04T23:47:45.238Z,-0.24
2023-02-04T23:50:11.636Z,-0.39
2023-02-04T23:52:38.001Z,-0.12
2023-02-04T23:55:05.553Z,-0.26
2023-02-04T23:57:31.953Z,-0.19
2023-02-04T23:59:58.334Z,-0.34
